createdAt,value
2018-05-14T00:02:25.707Z,85.30
2018-05-14T00:04:53.264Z,85.20
2018-05-14T00:07:20.735Z,86.10
2018-05-14T00:09:48.263Z,85.40
2018-05-14T00:12:15.722Z,85.40
2018-05-14T00:14:43.196Z,85.30
2018-05-14T00:17:10.655Z,85.50
2018-05-14T00:19:38.222Z,85.30
2018-05-14T00:22:05.798Z,85.80
2018-05-14T00:24:33.265Z,85.80
2018-05-14T00:27:01.515Z,85.80
2018-05-14T00:29:29.769Z,86.20
2018-05-14T00:31:57.222Z,86.20
2018-05-14T00:34:24.790Z,86.00
2018-05-14T00:36:52.467Z,86.30
2018-05-14T00:39:20.015Z,86.40
2018-05-14T00:41:47.563Z,86.70
2018-05-14T00:44:15.042Z,86.70
2018-05-14T00:46:42.586Z,86.70
2018-05-14T00:49:10.176Z,87.30
2018-05-14T00:51:37.645Z,87.30
2018-05-14T00:54:05.158Z,87.40
2018-05-14T00:56:32.634Z,87.60
2018-05-14T00:59:00.140Z,87.80
2018-05-14T01:01:27.631Z,87.30
2018-05-14T01:03:55.130Z,87.70
2018-05-14T01:06:22.572Z,87.90
2018-05-14T01:08:50.203Z,87.80
2018-05-14T01:11:17.733Z,87.70
2018-05-14T01:13:45.321Z,87.60
2018-05-14T01:16:12.798Z,88.20
2018-05-14T01:18:40.443Z,88.30
2018-05-14T01:21:07.897Z,88.40
2018-05-14T01:23:35.575Z,88.60
2018-05-14T01:26:03.121Z,89.90
2018-05-14T01:28:30.630Z,89.80
2018-05-14T01:30:58.109Z,89.40
2018-05-14T01:33:25.663Z,90.00
2018-05-14T01:35:53.129Z,89.60
2018-05-14T01:38:20.780Z,90.10
2018-05-14T01:40:49.938Z,90.40
2018-05-14T01:43:17.656Z,90.50
2018-05-14T01:45:45.331Z,90.80
2018-05-14T01:48:13.746Z,90.70
2018-05-14T01:50:41.460Z,90.80
2018-05-14T01:53:09.125Z,90.90
2018-05-14T01:55:36.671Z,90.90
2018-05-14T01:58:04.229Z,91.00
2018-05-14T02:00:31.767Z,91.10
2018-05-14T02:02:59.376Z,91.40
2018-05-14T02:05:28.368Z,91.60
2018-05-14T02:07:55.922Z,91.90
2018-05-14T02:10:23.375Z,92.10
2018-05-14T02:12:51.040Z,92.20
2018-05-14T02:15:18.496Z,92.30
2018-05-14T02:17:45.958Z,92.30
2018-05-14T02:20:13.405Z,92.30
2018-05-14T02:22:40.951Z,92.40
2018-05-14T02:25:08.393Z,92.30
2018-05-14T02:27:35.859Z,92.20
2018-05-14T02:30:03.378Z,92.30
2018-05-14T02:32:30.904Z,92.40
2018-05-14T02:34:59.153Z,92.50
2018-05-14T02:37:26.808Z,92.50
2018-05-14T02:39:54.357Z,92.60
2018-05-14T02:42:21.948Z,92.60
2018-05-14T02:44:49.482Z,92.60
2018-05-14T02:47:16.932Z,92.70
2018-05-14T02:49:44.389Z,92.80
2018-05-14T02:52:11.969Z,92.90
2018-05-14T02:54:39.494Z,92.90
2018-05-14T02:57:06.951Z,92.90
2018-05-14T02:59:34.736Z,93.00
2018-05-14T03:02:02.392Z,93.00
2018-05-14T03:04:29.922Z,92.90
2018-05-14T03:06:57.392Z,93.00
2018-05-14T03:09:25.189Z,92.90
2018-05-14T03:11:54.177Z,93.00
2018-05-14T03:14:21.739Z,93.00
2018-05-14T03:16:50.834Z,93.10
2018-05-14T03:19:18.298Z,93.10
2018-05-14T03:21:45.934Z,93.00
2018-05-14T03:24:13.483Z,93.00
2018-05-14T03:26:40.982Z,92.90
2018-05-14T03:29:08.713Z,93.00
2018-05-14T03:31:36.249Z,92.80
2018-05-14T03:34:03.828Z,92.80
2018-05-14T03:36:31.301Z,92.90
2018-05-14T03:39:00.324Z,92.60
2018-05-14T03:41:28.692Z,92.70
2018-05-14T03:43:56.142Z,92.70
2018-05-14T03:46:23.664Z,92.40
2018-05-14T03:48:51.264Z,92.70
2018-05-14T03:51:18.906Z,92.70
2018-05-14T03:53:46.537Z,92.80
2018-05-14T03:56:14.114Z,92.70
2018-05-14T03:58:53.749Z,92.70
2018-05-14T04:01:32.881Z,92.80
2018-05-14T04:04:12.264Z,92.80
2018-05-14T04:06:39.708Z,92.80
2018-05-14T04:09:07.219Z,92.80
2018-05-14T04:11:34.681Z,92.90
2018-05-14T04:14:02.269Z,93.00
2018-05-14T04:16:29.816Z,92.90
2018-05-14T04:18:57.248Z,92.90
2018-05-14T04:21:24.820Z,93.00
2018-05-14T04:23:52.808Z,92.90
2018-05-14T04:26:20.244Z,92.90
2018-05-14T04:28:47.878Z,92.90
2018-05-14T04:31:15.350Z,92.90
2018-05-14T04:33:42.826Z,92.90
2018-05-14T04:36:10.257Z,93.00
2018-05-14T04:38:38.033Z,93.00
2018-05-14T04:41:06.507Z,92.90
2018-05-14T04:43:34.191Z,92.90
2018-05-14T04:46:01.845Z,92.90
2018-05-14T04:48:29.319Z,92.80
2018-05-14T04:50:58.285Z,92.60
2018-05-14T04:53:25.745Z,92.60
2018-05-14T04:55:53.202Z,92.80
2018-05-14T04:58:20.704Z,92.90
2018-05-14T05:00:48.927Z,92.80
2018-05-14T05:03:17.390Z,92.80
2018-05-14T05:05:44.848Z,92.70
2018-05-14T05:08:12.318Z,92.70
2018-05-14T05:10:39.779Z,92.80
2018-05-14T05:13:07.232Z,92.80
2018-05-14T05:15:34.793Z,92.60
2018-05-14T05:18:02.255Z,92.90
2018-05-14T05:20:29.800Z,93.00
2018-05-14T05:22:57.361Z,92.90
2018-05-14T05:25:24.816Z,93.10
2018-05-14T05:27:52.283Z,92.80
2018-05-14T05:30:19.955Z,93.00
2018-05-14T05:32:49.064Z,93.10
2018-05-14T05:35:16.582Z,93.10
2018-05-14T05:37:44.074Z,92.80
2018-05-14T05:40:11.571Z,93.00
2018-05-14T05:42:39.058Z,93.00
2018-05-14T05:45:07.008Z,93.00
2018-05-14T05:47:34.466Z,92.90
2018-05-14T05:50:01.995Z,93.00
2018-05-14T05:52:30.288Z,92.90
2018-05-14T05:54:57.773Z,92.90
2018-05-14T05:57:25.316Z,92.70
2018-05-14T05:59:52.991Z,92.70
2018-05-14T06:02:20.552Z,92.60
2018-05-14T06:04:49.363Z,92.40
2018-05-14T06:07:16.899Z,92.40
2018-05-14T06:09:46.307Z,92.20
2018-05-14T06:12:14.672Z,92.20
2018-05-14T06:14:42.225Z,92.20
2018-05-14T06:17:09.792Z,92.10
2018-05-14T06:19:37.244Z,92.30
2018-05-14T06:22:04.696Z,92.10
2018-05-14T06:24:32.186Z,92.10
2018-05-14T06:26:59.716Z,92.30
2018-05-14T06:29:27.221Z,92.10
2018-05-14T06:31:55.455Z,92.40
2018-05-14T06:34:23.018Z,92.40
2018-05-14T06:36:50.495Z,92.50
2018-05-14T06:39:18.128Z,92.50
2018-05-14T06:41:45.680Z,92.40
2018-05-14T06:44:13.144Z,92.50
2018-05-14T06:46:40.704Z,92.20
2018-05-14T06:49:08.380Z,92.30
2018-05-14T06:51:35.900Z,92.00
2018-05-14T06:54:03.478Z,91.80
2018-05-14T06:56:31.152Z,91.90
2018-05-14T06:58:58.792Z,92.10
2018-05-14T07:01:26.345Z,92.20
2018-05-14T07:03:53.995Z,91.50
2018-05-14T07:06:21.577Z,91.00
2018-05-14T07:08:49.048Z,90.90
2018-05-14T07:11:16.512Z,90.40
2018-05-14T07:13:44.034Z,90.20
2018-05-14T07:16:11.651Z,89.60
2018-05-14T07:18:39.264Z,89.50
2018-05-14T07:21:06.726Z,89.30
2018-05-14T07:23:34.183Z,88.90
2018-05-14T07:26:01.629Z,89.60
2018-05-14T07:28:29.293Z,88.90
2018-05-14T07:30:56.780Z,87.50
2018-05-14T07:33:24.228Z,87.90
2018-05-14T07:35:53.202Z,86.30
2018-05-14T07:38:20.977Z,86.30
2018-05-14T07:40:48.433Z,86.50
2018-05-14T07:43:15.964Z,85.40
2018-05-14T07:45:43.550Z,85.60
2018-05-14T07:48:11.003Z,84.30
2018-05-14T07:50:38.461Z,83.10
2018-05-14T07:53:06.140Z,83.30
2018-05-14T07:55:33.786Z,84.50
2018-05-14T07:58:01.447Z,84.00
2018-05-14T08:00:28.910Z,83.20
2018-05-14T08:02:56.367Z,82.50
2018-05-14T08:05:23.896Z,85.00
2018-05-14T08:07:51.350Z,84.00
2018-05-14T08:10:19.141Z,84.00
2018-05-14T08:12:46.584Z,83.50
2018-05-14T08:15:14.044Z,83.60
2018-05-14T08:17:41.691Z,82.90
2018-05-14T08:20:09.177Z,83.00
2018-05-14T08:22:36.811Z,83.40
2018-05-14T08:25:04.284Z,83.50
2018-05-14T08:27:31.934Z,81.90
2018-05-14T08:29:59.589Z,82.60
2018-05-14T08:32:27.042Z,83.00
2018-05-14T08:34:54.502Z,82.00
2018-05-14T08:37:22.177Z,80.30
2018-05-14T08:39:50.041Z,82.30
2018-05-14T08:42:17.382Z,82.20
2018-05-14T08:44:44.848Z,80.40
2018-05-14T08:47:12.296Z,79.70
2018-05-14T08:49:39.813Z,80.80
2018-05-14T08:52:07.278Z,81.10
2018-05-14T08:54:34.867Z,81.50
2018-05-14T08:57:02.438Z,80.80
2018-05-14T08:59:29.943Z,80.10
2018-05-14T09:01:57.432Z,81.00
2018-05-14T09:04:25.023Z,79.60
2018-05-14T09:06:52.494Z,80.60
2018-05-14T09:09:21.043Z,80.60
2018-05-14T09:11:48.603Z,78.80
2018-05-14T09:14:16.259Z,79.20
2018-05-14T09:16:43.833Z,79.90
2018-05-14T09:19:11.576Z,80.30
2018-05-14T09:21:39.112Z,79.60
2018-05-14T09:24:06.732Z,78.60
2018-05-14T09:26:34.171Z,78.50
2018-05-14T09:29:02.982Z,77.80
2018-05-14T09:31:31.325Z,78.10
2018-05-14T09:33:58.794Z,78.10
2018-05-14T09:36:27.761Z,76.70
2018-05-14T09:38:55.336Z,76.70
2018-05-14T09:41:23.007Z,77.30
2018-05-14T09:43:51.229Z,77.40
2018-05-14T09:46:18.697Z,77.30
2018-05-14T09:48:46.132Z,78.70
2018-05-14T09:51:13.633Z,76.80
2018-05-14T09:53:41.299Z,77.00
2018-05-14T09:56:08.812Z,77.10
2018-05-14T09:58:36.405Z,76.50
2018-05-14T10:01:04.091Z,77.30
2018-05-14T10:03:31.845Z,75.60
2018-05-14T10:06:00.787Z,74.30
2018-05-14T10:08:29.096Z,74.30
2018-05-14T10:10:56.767Z,75.30
2018-05-14T10:13:25.859Z,75.90
2018-05-14T10:15:53.544Z,75.80
2018-05-14T10:18:21.052Z,75.90
2018-05-14T10:20:48.514Z,76.50
2018-05-14T10:23:15.979Z,74.00
2018-05-14T10:25:43.555Z,76.60
2018-05-14T10:28:11.018Z,74.80
2018-05-14T10:30:38.465Z,74.70
2018-05-14T10:33:05.923Z,74.70
2018-05-14T10:35:33.583Z,75.30
2018-05-14T10:38:01.224Z,74.20
2018-05-14T10:40:28.765Z,74.70
2018-05-14T10:42:56.216Z,73.20
2018-05-14T10:45:23.794Z,74.00
2018-05-14T10:47:51.331Z,73.10
2018-05-14T10:50:18.887Z,71.80
2018-05-14T10:52:46.396Z,73.30
2018-05-14T10:55:14.656Z,71.90
2018-05-14T10:57:43.787Z,72.60
2018-05-14T11:00:11.262Z,72.50
2018-05-14T11:02:38.852Z,70.10
2018-05-14T11:05:06.526Z,70.20
2018-05-14T11:07:34.214Z,71.70
2018-05-14T11:10:01.837Z,70.30
2018-05-14T11:12:29.297Z,70.60
2018-05-14T11:14:56.748Z,69.60
2018-05-14T11:17:24.311Z,69.10
2018-05-14T11:19:51.872Z,68.20
2018-05-14T11:22:19.339Z,67.70
2018-05-14T11:24:46.807Z,68.70
2018-05-14T11:27:14.455Z,67.70
2018-05-14T11:29:41.922Z,68.80
2018-05-14T11:32:09.571Z,67.70
2018-05-14T11:34:37.045Z,67.50
2018-05-14T11:37:04.687Z,67.30
2018-05-14T11:39:33.855Z,67.00
2018-05-14T11:42:01.319Z,67.00
2018-05-14T11:44:28.756Z,67.60
2018-05-14T11:46:56.212Z,68.10
2018-05-14T11:49:23.775Z,67.40
2018-05-14T11:51:51.282Z,65.60
2018-05-14T11:54:18.736Z,67.70
2018-05-14T11:56:46.279Z,67.60
2018-05-14T11:59:13.852Z,66.40
2018-05-14T12:01:41.336Z,66.00
2018-05-14T12:04:08.954Z,66.10
2018-05-14T12:06:37.912Z,66.50
2018-05-14T12:09:05.441Z,66.40
2018-05-14T12:11:33.653Z,67.80
2018-05-14T12:14:01.096Z,67.70
2018-05-14T12:16:28.683Z,68.30
2018-05-14T12:18:56.149Z,67.40
2018-05-14T12:21:23.620Z,66.80
2018-05-14T12:23:51.843Z,68.90
2018-05-14T12:26:19.401Z,68.90
2018-05-14T12:28:47.003Z,69.80
2018-05-14T12:31:14.528Z,68.30
2018-05-14T12:33:41.983Z,68.10
2018-05-14T12:36:09.430Z,66.30
2018-05-14T12:38:36.967Z,66.60
2018-05-14T12:41:04.422Z,66.40
2018-05-14T12:43:32.131Z,66.30
2018-05-14T12:45:59.661Z,67.20
2018-05-14T12:48:27.116Z,68.60
2018-05-14T12:50:54.573Z,68.30
2018-05-14T12:53:22.052Z,66.80
2018-05-14T12:55:49.623Z,66.90
2018-05-14T12:58:17.077Z,66.30
2018-05-14T13:00:44.551Z,66.80
2018-05-14T13:03:12.197Z,64.20
2018-05-14T13:05:40.152Z,63.00
2018-05-14T13:08:07.729Z,61.30
2018-05-14T13:10:35.172Z,61.30
2018-05-14T13:13:02.908Z,62.60
2018-05-14T13:15:31.880Z,62.20
2018-05-14T13:17:59.320Z,62.20
2018-05-14T13:20:27.653Z,63.50
2018-05-14T13:22:55.310Z,63.50
2018-05-14T13:25:22.845Z,64.10
2018-05-14T13:27:50.448Z,64.00
2018-05-14T13:30:19.538Z,54.70
2018-05-14T13:32:51.365Z,54.50
2018-05-14T13:35:18.830Z,54.40
2018-05-14T13:37:46.465Z,50.60
2018-05-14T13:40:16.252Z,48.80
2018-05-14T13:42:47.120Z,47.00
2018-05-14T13:45:14.929Z,45.40
2018-05-14T13:47:43.920Z,43.20
2018-05-14T13:50:11.392Z,43.30
2018-05-14T13:52:39.620Z,44.40
2018-05-14T13:55:08.090Z,44.40
2018-05-14T13:57:35.528Z,43.80
2018-05-14T14:00:03.063Z,45.40
2018-05-14T14:02:31.393Z,42.80
2018-05-14T14:04:58.948Z,42.70
2018-05-14T14:07:29.222Z,42.70
2018-05-14T14:09:56.917Z,43.70
2018-05-14T14:12:24.515Z,42.10
2018-05-14T14:14:53.469Z,42.60
2018-05-14T14:17:21.352Z,42.60
2018-05-14T14:19:48.939Z,41.80
2018-05-14T14:22:17.432Z,40.30
2018-05-14T14:24:45.884Z,40.80
2018-05-14T14:27:13.404Z,40.90
2018-05-14T14:29:42.165Z,40.50
2018-05-14T14:32:10.619Z,40.70
2018-05-14T14:34:38.160Z,40.70
2018-05-14T14:37:05.655Z,42.10
2018-05-14T14:39:34.874Z,41.10
2018-05-14T14:42:02.457Z,41.10
2018-05-14T14:44:30.374Z,40.70
2018-05-14T14:46:57.851Z,40.60
2018-05-14T14:49:25.837Z,39.60
2018-05-14T14:51:53.413Z,40.00
2018-05-14T14:54:20.868Z,39.30
2018-05-14T14:56:48.312Z,40.40
2018-05-14T14:59:15.771Z,39.20
2018-05-14T15:01:43.251Z,39.40
2018-05-14T15:04:10.912Z,40.30
2018-05-14T15:06:38.453Z,41.10
2018-05-14T15:09:07.765Z,40.90
2018-05-14T15:11:36.934Z,40.90
2018-05-14T15:14:07.513Z,41.00
2018-05-14T15:16:35.255Z,42.00
2018-05-14T15:19:03.219Z,40.40
2018-05-14T15:21:30.748Z,40.90
2018-05-14T15:23:59.596Z,40.10
2018-05-14T15:26:27.805Z,41.20
2018-05-14T15:28:56.188Z,41.20
2018-05-14T15:31:24.191Z,41.60
2018-05-14T15:33:52.122Z,40.50
2018-05-14T15:38:52.689Z,41.40
2018-05-14T15:41:20.236Z,39.50
2018-05-14T15:43:47.599Z,39.20
2018-05-14T15:46:15.083Z,39.50
2018-05-14T15:48:42.543Z,39.70
2018-05-14T15:51:10.190Z,39.20
2018-05-14T15:53:37.642Z,39.20
2018-05-14T15:56:05.305Z,38.40
2018-05-14T15:58:32.767Z,38.40
2018-05-14T16:01:00.440Z,38.80
2018-05-14T16:03:28.093Z,39.60
2018-05-14T16:05:55.550Z,38.70
2018-05-14T16:08:23.089Z,39.20
2018-05-14T16:10:51.976Z,39.30
2018-05-14T16:13:19.543Z,39.20
2018-05-14T16:15:47.008Z,38.90
2018-05-14T16:18:14.467Z,39.00
2018-05-14T16:20:42.086Z,40.50
2018-05-14T16:23:09.443Z,41.00
2018-05-14T16:25:42.213Z,40.40
2018-05-14T16:28:09.664Z,40.90
2018-05-14T16:30:37.263Z,39.20
2018-05-14T16:33:05.726Z,39.00
2018-05-14T16:35:33.160Z,40.30
2018-05-14T16:38:06.666Z,41.30
2018-05-14T16:43:08.171Z,44.60
2018-05-14T16:45:36.530Z,43.20
2018-05-14T16:48:04.054Z,44.10
2018-05-14T16:50:31.863Z,43.60
2018-05-14T16:52:59.305Z,43.80
2018-05-14T16:55:26.963Z,44.00
2018-05-14T16:57:54.433Z,43.80
2018-05-14T17:00:21.864Z,43.60
2018-05-14T17:02:49.414Z,43.70
2018-05-14T17:05:16.987Z,43.60
2018-05-14T17:07:46.261Z,43.60
2018-05-14T17:10:13.852Z,43.70
2018-05-14T17:12:41.446Z,43.60
2018-05-14T17:15:08.915Z,43.70
2018-05-14T17:17:36.513Z,44.10
2018-05-14T17:20:03.975Z,43.80
2018-05-14T17:22:31.632Z,44.20
2018-05-14T17:24:59.109Z,44.30
2018-05-14T17:27:26.759Z,44.30
2018-05-14T17:29:54.307Z,44.40
2018-05-14T17:32:21.868Z,45.00
2018-05-14T17:34:49.680Z,43.40
2018-05-14T17:37:17.915Z,44.70
2018-05-14T17:39:45.478Z,44.70
2018-05-14T17:42:14.450Z,52.60
2018-05-14T17:44:41.914Z,52.50
2018-05-14T17:47:09.361Z,53.10
2018-05-14T17:49:37.032Z,54.40
2018-05-14T17:52:04.479Z,55.40
2018-05-14T17:54:31.951Z,55.30
2018-05-14T17:56:59.787Z,56.00
2018-05-14T17:59:27.619Z,57.40
2018-05-14T18:01:55.125Z,57.90
2018-05-14T18:04:22.593Z,58.30
2018-05-14T18:06:50.082Z,58.70
2018-05-14T18:09:18.366Z,59.40
2018-05-14T18:11:45.819Z,59.30
2018-05-14T18:14:14.158Z,59.90
2018-05-14T18:16:41.784Z,59.80
2018-05-14T18:19:09.495Z,60.30
2018-05-14T18:21:37.942Z,60.90
2018-05-14T18:24:05.495Z,61.50
2018-05-14T18:26:38.875Z,61.60
2018-05-14T18:29:08.951Z,61.60
2018-05-14T18:31:41.910Z,62.00
2018-05-14T18:34:09.455Z,62.10
2018-05-14T18:36:36.915Z,62.60
2018-05-14T18:39:05.306Z,62.90
2018-05-14T18:41:33.337Z,63.40
2018-05-14T18:44:02.139Z,63.80
2018-05-14T18:46:29.644Z,64.20
2018-05-14T18:48:57.283Z,64.40
2018-05-14T18:51:27.158Z,65.00
2018-05-14T18:53:54.992Z,65.00
2018-05-14T18:56:23.095Z,65.10
2018-05-14T18:58:50.616Z,64.80
2018-05-14T19:01:18.855Z,64.20
2018-05-14T19:03:46.624Z,64.10
2018-05-14T19:06:14.380Z,63.60
2018-05-14T19:08:41.882Z,62.70
2018-05-14T19:11:17.714Z,62.80
2018-05-14T19:13:45.461Z,63.00
2018-05-14T19:16:18.669Z,62.40
2018-05-14T19:18:47.136Z,62.70
2018-05-14T19:21:15.100Z,63.20
2018-05-14T19:23:48.784Z,63.30
2018-05-14T19:26:17.678Z,63.40
2018-05-14T19:28:52.496Z,63.80
2018-05-14T19:31:20.170Z,63.80
2018-05-14T19:33:53.369Z,63.90
2018-05-14T19:36:21.358Z,63.80
2018-05-14T19:38:52.405Z,65.10
2018-05-14T19:41:20.309Z,64.40
2018-05-14T19:43:47.757Z,65.00
2018-05-14T19:46:15.348Z,65.00
2018-05-14T19:48:43.027Z,64.60
2018-05-14T19:51:10.541Z,64.70
2018-05-14T19:53:38.407Z,64.60
2018-05-14T19:56:06.327Z,64.50
2018-05-14T19:58:33.933Z,64.70
2018-05-14T20:01:01.502Z,63.40
2018-05-14T20:03:28.928Z,63.00
2018-05-14T20:05:56.332Z,62.90
2018-05-14T20:08:23.889Z,63.30
2018-05-14T20:10:51.545Z,64.30
2018-05-14T20:13:19.098Z,66.00
2018-05-14T20:15:46.559Z,68.10
2018-05-14T20:18:14.118Z,69.10
2018-05-14T20:20:41.658Z,69.80
2018-05-14T20:23:09.251Z,70.20
2018-05-14T20:25:36.914Z,70.80
2018-05-14T20:28:05.384Z,71.40
2018-05-14T20:30:33.044Z,70.90
2018-05-14T20:33:00.715Z,71.50
2018-05-14T20:35:28.370Z,71.70
2018-05-14T20:37:57.504Z,72.30
2018-05-14T20:40:25.114Z,72.30
2018-05-14T20:42:52.574Z,72.50
2018-05-14T20:45:20.103Z,73.00
2018-05-14T20:47:47.715Z,73.40
2018-05-14T20:50:15.272Z,73.50
2018-05-14T20:52:42.800Z,73.70
2018-05-14T20:55:10.539Z,73.80
2018-05-14T20:57:38.139Z,73.80
2018-05-14T21:00:05.677Z,74.00
2018-05-14T21:02:33.131Z,74.20
2018-05-14T21:05:00.702Z,74.30
2018-05-14T21:07:28.357Z,73.80
2018-05-14T21:09:55.809Z,73.50
2018-05-14T21:12:23.280Z,73.60
2018-05-14T21:14:52.388Z,74.40
2018-05-14T21:17:19.828Z,73.50
2018-05-14T21:19:47.393Z,74.20
2018-05-14T21:22:15.766Z,74.70
2018-05-14T21:24:43.314Z,74.00
2018-05-14T21:27:10.768Z,73.60
2018-05-14T21:29:38.349Z,73.60
2018-05-14T21:32:05.802Z,74.00
2018-05-14T21:34:34.770Z,74.20
2018-05-14T21:37:02.220Z,74.20
2018-05-14T21:39:29.992Z,74.30
2018-05-14T21:41:57.471Z,74.20
2018-05-14T21:44:25.131Z,73.90
2018-05-14T21:46:54.222Z,74.00
2018-05-14T21:49:23.245Z,73.80
2018-05-14T21:51:51.468Z,73.80
2018-05-14T21:54:19.039Z,73.90
2018-05-14T21:56:46.607Z,73.90
2018-05-14T21:59:14.160Z,74.50
2018-05-14T22:01:41.683Z,74.80
2018-05-14T22:04:09.133Z,75.30
2018-05-14T22:06:36.597Z,75.70
2018-05-14T22:09:04.125Z,75.80
2018-05-14T22:11:32.363Z,76.50
2018-05-14T22:13:59.824Z,76.40
2018-05-14T22:16:27.383Z,76.50
2018-05-14T22:18:54.911Z,76.80
2018-05-14T22:21:22.379Z,77.00
2018-05-14T22:23:49.955Z,77.40
2018-05-14T22:26:17.407Z,77.90
2018-05-14T22:28:44.865Z,78.30
2018-05-14T22:31:12.392Z,78.60
2018-05-14T22:33:39.846Z,79.00
2018-05-14T22:36:07.393Z,79.00
2018-05-14T22:38:34.957Z,79.20
2018-05-14T22:41:02.407Z,79.30
2018-05-14T22:43:29.908Z,79.40
2018-05-14T22:45:57.453Z,79.80
2018-05-14T22:48:25.128Z,80.00
2018-05-14T22:50:52.771Z,80.10
2018-05-14T22:53:20.324Z,80.20
2018-05-14T22:55:47.807Z,80.30
2018-05-14T22:58:15.566Z,81.10
2018-05-14T23:00:43.232Z,80.10
2018-05-14T23:03:10.875Z,79.70
2018-05-14T23:05:38.417Z,79.20
2018-05-14T23:08:05.872Z,78.70
2018-05-14T23:10:33.408Z,78.20
2018-05-14T23:13:00.848Z,78.00
2018-05-14T23:15:29.089Z,77.20
2018-05-14T23:17:56.642Z,77.20
2018-05-14T23:20:24.173Z,77.10
2018-05-14T23:22:51.629Z,77.00
2018-05-14T23:25:19.096Z,77.10
2018-05-14T23:27:46.568Z,77.20
2018-05-14T23:30:14.208Z,77.10
2018-05-14T23:32:41.678Z,76.90
2018-05-14T23:35:09.128Z,76.80
2018-05-14T23:37:36.703Z,76.70
2018-05-14T23:40:06.754Z,76.50
2018-05-14T23:42:34.985Z,76.40
2018-05-14T23:45:02.443Z,76.40
2018-05-14T23:47:29.904Z,76.60
2018-05-14T23:49:57.457Z,76.40
2018-05-14T23:52:24.997Z,76.50
2018-05-14T23:54:52.465Z,76.40
2018-05-14T23:57:19.941Z,76.50
2018-05-14T23:59:47.499Z,76.60
